Flight Track Log - Related Links

Times and Time Zones

All times are in EDT time to prevent confusion due to time zone crossing. See the UAL623 flight status page for this flight to view local times or setup timezone preferences in your user account.

Time Position Orientation Groundspeed Altitude Reporting Facility
EDT Latitude Longitude Course Direction KTS MPH feet Rate Location/Type
Thu 07:51:26 PM 41.9500 -87.9667 253° West 202 232 2,000  Level Chicago TRACON
Thu 07:52:26 PM 41.9333 -88.0500 255° West 248 285 4,600 1,739 Climbing Chicago TRACON
Thu 07:53:44 PM 41.9517 -88.1725 281° West 270 311 6,000 1,800 Climbing Chicago Center
Thu 07:54:00 PM 41.8330 -88.4848 254° West  Level FlightAware Approximate
Thu 07:54:46 PM 41.9564 -88.2725 274° West 270 311 8,800  Level Chicago Center
Thu 07:55:00 PM 41.8002 -88.6333 254° West  Level FlightAware Approximate
Thu 07:55:48 PM 41.9614 -88.3831 274° West 293 337 11,200  Level Chicago Center
Thu 07:56:00 PM 41.7673 -88.7817 253° West  Level FlightAware Approximate
Thu 07:56:50 PM 41.9478 -88.5078 262° West 340 391 13,000  Level Chicago Center
Thu 07:57:52 PM 41.9044 -88.6589 249° West 364 419 15,900 2,565 Climbing Chicago Center
Thu 07:58:54 PM 41.8658 -88.7917 249° West 382 440 18,300 2,095 Climbing Chicago Center
Thu 07:59:58 PM 41.8286 -88.9258 250° West 388 447 20,300 1,857 Climbing Chicago Center
Thu 08:01:00 PM 41.7889 -89.0619 249° West 394 453 22,200 1,887 Climbing Chicago Center
Thu 08:02:02 PM 41.7406 -89.2306 249° West 406 467 24,200 1,694 Climbing Chicago Center
Thu 08:03:04 PM 41.6992 -89.3725 249° West 413 475 25,700 1,355 Climbing Chicago Center
Thu 08:04:06 PM 41.6750 -89.5242 258° West 428 493 27,000 1,210 Climbing Chicago Center
Thu 08:05:08 PM 41.6672 -89.6792 266° West 439 505 28,200 1,200 Climbing Chicago Center
Thu 08:06:11 PM 41.6567 -89.8444 265° West 448 516 29,500 1,680 Climbing Chicago Center
Thu 08:07:13 PM 41.6464 -90.0419 266° West 447 514 31,700 1,742 Climbing Chicago Center
Thu 08:08:15 PM 41.6364 -90.2022 265° West 438 504 33,100 1,113 Climbing Chicago Center
Thu 08:09:17 PM 41.6258 -90.3650 265° West 442 509 34,000 435 Climbing Chicago Center
Thu 08:10:19 PM 41.6167 -90.5236 266° West 435 501 34,000  Level Chicago Center
Thu 08:11:21 PM 41.6050 -90.7033 265° West 431 496 34,000 339 Level Chicago Center
Thu 08:12:23 PM 41.5917 -90.8669 264° West 442 509 34,700 484 Climbing Chicago Center
Thu 08:13:25 PM 41.5692 -91.0247 259° West 437 503 35,000 145 Climbing Chicago Center
Thu 08:14:27 PM 41.5450 -91.1783 258° West 427 491 35,000  Level Chicago Center
Thu 08:15:29 PM 41.5208 -91.3336 258° West 430 495 35,000 97 Level Chicago Center
Thu 08:16:31 PM 41.4925 -91.5219 259° West 432 497 35,200 480 Climbing Chicago Center
Thu 08:17:34 PM 41.4683 -91.6775 258° West 432 497 36,000 384 Climbing Chicago Center
Thu 08:18:36 PM 41.4444 -91.8303 258° West 426 490 36,000  Level Chicago Center
Thu 08:19:38 PM 41.4200 -91.9850 258° West 430 495 36,000  Level Chicago Center
Thu 08:20:40 PM 41.3947 -92.1392 258° West 430 495 36,000  Level Chicago Center
Thu 08:21:42 PM 41.3642 -92.3261 258° West 432 497 36,000  Level Chicago Center
Thu 08:22:44 PM 41.3403 -92.4758 258° West 440 506 36,000  Level Chicago Center
Thu 08:23:46 PM 41.3147 -92.6328 258° West 441 507 36,000  Level Chicago Center
Thu 08:24:26 PM 41.2936 -92.7608 258° West 442 509 36,000  Level Minneapolis Center
Thu 08:25:28 PM 41.2669 -92.9181 257° West 443 510 36,000  Level Minneapolis Center
Thu 08:26:30 PM 41.2406 -93.0758 258° West 444 511 36,000  Level Minneapolis Center
Thu 08:27:32 PM 41.2144 -93.2336 258° West 443 510 36,000  Level Minneapolis Center
Thu 08:28:34 PM 41.1814 -93.4233 257° West 444 511 36,000  Level Minneapolis Center
Thu 08:29:36 PM 41.1536 -93.5775 257° West 439 505 36,000  Level Minneapolis Center
Thu 08:30:38 PM 41.1272 -93.7356 258° West 440 506 36,000  Level Minneapolis Center
Thu 08:31:40 PM 41.0997 -93.8939 257° West 444 511 36,000  Level Minneapolis Center
Thu 08:32:42 PM 41.0719 -94.0517 257° West 443 510 36,000  Level Minneapolis Center
Thu 08:33:44 PM 41.0383 -94.2422 257° West 446 513 36,000  Level Minneapolis Center
Thu 08:34:46 PM 41.0061 -94.4050 255° West 452 520 36,000  Level Minneapolis Center
Thu 08:35:47 PM 40.9761 -94.5658 256° West 455 524 36,000  Level Minneapolis Center
Thu 08:37:01 PM 40.9475 -94.7261 257° West 449 517 36,000  Level Minneapolis Center
Thu 08:38:04 PM 40.9119 -94.9208 256° West 452 520 36,000  Level Minneapolis Center
Thu 08:39:06 PM 40.8806 -95.0842 256° West 457 526 36,000  Level Minneapolis Center
Thu 08:40:08 PM 40.8431 -95.2803 256° West 457 526 36,000  Level Minneapolis Center
Thu 08:41:10 PM 40.8119 -95.4442 256° West 458 527 36,000  Level Minneapolis Center
Thu 08:42:24 PM 40.7792 -95.6081 255° West 458 527 36,000  Level Minneapolis Center
Thu 08:43:27 PM 40.7417 -95.8031 256° West 457 526 36,000  Level Minneapolis Center
Thu 08:44:29 PM 40.7086 -95.9692 255° West 462 532 36,000  Level Minneapolis Center
Thu 08:45:31 PM 40.6778 -96.1311 256° West 457 526 36,000  Level Minneapolis Center
Thu 08:46:33 PM 40.6453 -96.2950 255° West 458 527 36,000  Level Minneapolis Center
Thu 08:47:35 PM 40.6067 -96.4894 255° West 457 526 36,000  Level Minneapolis Center
Thu 08:48:37 PM 40.5744 -96.6517 255° West 458 527 36,000  Level Minneapolis Center
Thu 08:49:39 PM 40.5414 -96.8139 255° West 458 527 36,000  Level Minneapolis Center
Thu 08:50:41 PM 40.5083 -96.9764 255° West 459 528 36,000  Level Minneapolis Center
Thu 08:51:43 PM 40.4747 -97.1381 255° West 459 528 36,000  Level Minneapolis Center
Thu 08:52:57 PM 40.4411 -97.2992 255° West 457 526 36,000  Level Minneapolis Center
Thu 08:54:00 PM 40.3964 -97.5114 255° West 455 524 36,000  Level Minneapolis Center
Thu 08:55:14 PM 40.3625 -97.6717 255° West 454 522 36,000  Level Minneapolis Center
Thu 08:56:16 PM 40.3208 -97.8644 254° West 455 524 36,000  Level Minneapolis Center
Thu 08:57:19 PM 40.2858 -98.0236 254° West 454 522 36,000  Level Minneapolis Center
Thu 08:58:21 PM 40.2433 -98.2153 254° West 455 524 36,000  Level Minneapolis Center
Thu 08:59:22 PM 40.2156 -98.3447 254° West 456 525 36,000  Level Minneapolis Center
Thu 09:00:24 PM 40.1800 -98.5042 254° West 456 525 36,000  Level Minneapolis Center
Thu 09:01:27 PM 40.1369 -98.6950 254° West 455 524 36,000  Level Minneapolis Center
Thu 09:02:29 PM 40.1017 -98.8528 254° West 453 521 36,000  Level Minneapolis Center
Thu 09:03:07 PM 40.0800 -98.9486 254° West 454 522 36,000  Level Denver Center
Thu 09:04:09 PM 40.0436 -99.1058 253° West 452 520 36,000  Level Denver Center
Thu 09:05:11 PM 40.0081 -99.2636 254° West 451 519 36,000  Level Denver Center
Thu 09:06:13 PM 39.9644 -99.4525 253° West 452 520 36,000  Level Denver Center
Thu 09:07:14 PM 39.9281 -99.6097 253° West 451 519 36,000  Level Denver Center
Thu 09:08:16 PM 39.8908 -99.7653 253° West 450 518 36,000  Level Denver Center
Thu 09:09:18 PM 39.8550 -99.9222 253° West 451 519 36,000  Level Denver Center
Thu 09:10:20 PM 39.8178 -100.0753 252° West 446 513 36,000  Level Denver Center
Thu 09:11:21 PM 39.7808 -100.2281 253° West 442 509 36,000  Level Denver Center
Thu 09:12:23 PM 39.7394 -100.3997 253° West 442 509 36,000  Level Denver Center
Thu 09:13:25 PM 39.7036 -100.5461 252° West 444 511 36,000  Level Denver Center
Thu 09:14:27 PM 39.6619 -100.7183 253° West 447 514 36,000  Level Denver Center
Thu 09:15:29 PM 39.6256 -100.8656 252° West 447 514 36,000  Level Denver Center
Thu 09:16:31 PM 39.5894 -101.0119 252° West 447 514 36,000 -488 Level Denver Center
Thu 09:17:32 PM 39.5464 -101.1819 252° West 444 511 35,000 -488 Descending Denver Center
Thu 09:18:34 PM 39.5097 -101.3339 253° West 457 526 35,000  Level Denver Center
Thu 09:19:36 PM 39.4650 -101.5103 252° West 460 529 35,000  Level Denver Center
Thu 09:20:38 PM 39.4278 -101.6614 252° West 459 528 35,000 -49 Level Denver Center
Thu 09:21:39 PM 39.3828 -101.8350 252° West 457 526 34,900 -488 Descending Denver Center
Thu 09:22:41 PM 39.3442 -101.9839 252° West 458 527 34,000 -435 Descending Denver Center
Thu 09:23:43 PM 39.3011 -102.1528 252° West 467 537 34,000  Level Denver Center
Thu 09:24:45 PM 39.2608 -102.3056 251° West 470 541 34,000  Level Denver Center
Thu 09:25:47 PM 39.2139 -102.4811 251° West 466 536 34,000  Level Denver Center
Thu 09:26:49 PM 39.1750 -102.6306 251° West 461 531 34,000  Level Denver Center
Thu 09:27:50 PM 39.1308 -102.7878 250° West 465 535 34,000  Level Denver Center
Thu 09:28:52 PM 39.0592 -102.9506 240° Southwest 468 539 34,000  Level Denver Center
Thu 09:29:54 PM 38.9969 -103.0889 240° Southwest 467 537 34,000  Level Denver Center
Thu 09:30:56 PM 38.9258 -103.2539 241° Southwest 473 544 34,000  Level Denver Center
Thu 09:31:58 PM 38.8650 -103.3944 241° Southwest 472 543 34,000  Level Denver Center
Thu 09:33:00 PM 38.7928 -103.5575 240° Southwest 471 542 34,000  Level Denver Center
Thu 09:34:02 PM 38.7300 -103.6978 240° Southwest 475 547 34,000  Level Denver Center
Thu 09:35:04 PM 38.6600 -103.8636 242° Southwest 475 547 34,000  Level Denver Center
Thu 09:36:06 PM 38.5975 -104.0053 241° Southwest 479 551 34,000  Level Denver Center
Thu 09:37:08 PM 38.5250 -104.1706 241° Southwest 479 551 34,000  Level Denver Center
Thu 09:38:10 PM 38.4644 -104.3128 241° Southwest 478 550 34,000  Level Denver Center
Thu 09:39:12 PM 38.4139 -104.4922 250° West 483 556 34,000  Level Denver Center
Thu 09:40:14 PM 38.3733 -104.6458 251° West 481 554 34,000  Level Denver Center
Thu 09:41:16 PM 38.3261 -104.8264 252° West 481 554 34,000  Level Denver Center
Thu 09:42:30 PM 38.2867 -104.9806 252° West 481 554 34,000  Level Denver Center
Thu 09:43:32 PM 38.2333 -105.1856 252° West 480 552 34,000  Level Denver Center
Thu 09:44:34 PM 38.1911 -105.3403 251° West 482 555 34,000  Level Denver Center
Thu 09:45:36 PM 38.1428 -105.5217 251° West 486 559 34,000  Level Denver Center
Thu 09:46:38 PM 38.0997 -105.6775 251° West 489 563 34,000  Level Denver Center
Thu 09:47:40 PM 38.0500 -105.8606 251° West 490 564 34,000  Level Denver Center
Thu 09:48:42 PM 38.0067 -106.0172 251° West 492 566 34,000  Level Denver Center
Thu 09:49:44 PM 37.9556 -106.1989 250° West 491 565 34,000  Level Denver Center
Thu 09:50:46 PM 37.9133 -106.3553 251° West 491 565 34,000  Level Denver Center
Thu 09:51:48 PM 37.8633 -106.5308 250° West 491 565 34,000  Level Denver Center
Thu 09:52:50 PM 37.8194 -106.6867 250° West 492 566 34,000  Level Denver Center
Thu 09:53:52 PM 37.7661 -106.8739 250° West 491 565 34,000  Level Denver Center
Thu 09:54:54 PM 37.7222 -107.0281 250° West 490 564 34,000  Level Denver Center
Thu 09:55:56 PM 37.6783 -107.1828 250° West 490 564 34,000  Level Denver Center
Thu 09:57:11 PM 37.6186 -107.3883 250° West 489 563 34,000  Level Denver Center
Thu 09:58:13 PM 37.5672 -107.5667 250° West 488 562 34,000  Level Denver Center
Thu 09:59:15 PM 37.5214 -107.7203 249° West 489 563 34,000  Level Denver Center
Thu 10:00:17 PM 37.4706 -107.8967 250° West 482 555 34,000  Level Denver Center
Thu 10:01:19 PM 37.4250 -108.0511 250° West 488 562 34,000  Level Denver Center
Thu 10:02:21 PM 37.3719 -108.2267 249° West 484 557 34,000  Level Denver Center
Thu 10:03:23 PM 37.3269 -108.3781 250° West 482 555 34,000  Level Denver Center
Thu 10:04:25 PM 37.2733 -108.5539 249° West 482 555 34,000  Level Denver Center
Thu 10:05:27 PM 37.2283 -108.7053 250° West 484 557 34,000  Level Denver Center
Thu 10:06:41 PM 37.1664 -108.9067 249° West 486 559 34,000  Level Denver Center
Thu 10:07:43 PM 37.1206 -109.0583 249° West 488 562 34,000  Level Denver Center
Thu 10:08:45 PM 37.0647 -109.2356 249° West 492 566 34,000  Level Denver Center
Thu 10:09:47 PM 37.0186 -109.3853 249° West 487 560 34,000  Level Denver Center
Thu 10:10:49 PM 36.9636 -109.5617 249° West 489 563 34,000  Level Denver Center
Thu 10:11:51 PM 36.9169 -109.7119 249° West 489 563 34,000  Level Denver Center
Thu 10:12:53 PM 36.8603 -109.8872 248° West 487 560 34,000  Level Denver Center
Thu 10:13:55 PM 36.8119 -110.0386 248° West 491 565 34,000  Level Denver Center
Thu 10:14:57 PM 36.7600 -110.1981 248° West 488 562 34,000  Level Denver Center
Thu 10:16:11 PM 36.6994 -110.3875 248° West 490 564 34,000  Level Denver Center
Thu 10:17:13 PM 36.6492 -110.5461 248° West 493 567 34,000  Level Denver Center
Thu 10:18:15 PM 36.5886 -110.7356 248° West 492 566 34,000  Level Denver Center
Thu 10:19:17 PM 36.5364 -110.8936 248° West 493 567 34,000  Level Denver Center
Thu 10:20:19 PM 36.4853 -111.0519 248° West 493 567 34,000  Level Denver Center
Thu 10:21:21 PM 36.4311 -111.2086 247° West 493 567 34,000  Level Denver Center
Thu 10:22:23 PM 36.3808 -111.3644 248° West 490 564 34,000  Level Denver Center
Thu 10:23:25 PM 36.3256 -111.5161 246° West 484 557 34,000  Level Denver Center
Thu 10:24:27 PM 36.2694 -111.6678 245° Southwest 484 557 34,000  Level Denver Center
Thu 10:25:28 PM 36.2022 -111.8503 246° West 485 558 34,000  Level Denver Center
Thu 10:26:30 PM 36.1475 -112.0008 246° West 481 554 34,000  Level Denver Center
Thu 10:27:32 PM 36.0914 -112.1514 245° Southwest 481 554 34,000  Level Denver Center
Thu 10:28:34 PM 36.0353 -112.3019 245° Southwest 482 555 34,000  Level Denver Center
Thu 10:29:47 PM 35.9672 -112.4839 245° Southwest 482 555 34,000  Level Los Angeles Center
Thu 10:30:49 PM 35.9069 -112.6464 245° Southwest 488 562 34,000  Level Los Angeles Center
Thu 10:31:51 PM 35.8494 -112.7969 245° Southwest 490 564 34,000  Level Los Angeles Center
Thu 10:32:53 PM 35.7931 -112.9483 245° Southwest 492 566 34,000  Level Los Angeles Center
Thu 10:33:55 PM 35.7356 -113.0983 245° Southwest 492 566 34,000  Level Los Angeles Center
Thu 10:34:57 PM 35.6675 -113.2767 245° Southwest 488 562 34,000  Level Los Angeles Center
Thu 10:35:59 PM 35.6086 -113.4289 245° Southwest 493 567 34,000  Level Los Angeles Center
Thu 10:37:01 PM 35.5503 -113.5792 245° Southwest 494 568 34,000  Level Los Angeles Center
Thu 10:38:03 PM 35.4922 -113.7300 245° Southwest 494 568 34,000  Level Los Angeles Center
Thu 10:39:05 PM 35.4217 -113.9114 245° Southwest 495 570 34,000  Level Los Angeles Center
Thu 10:40:07 PM 35.3633 -114.0606 244° Southwest 491 565 34,000  Level Los Angeles Center
Thu 10:41:09 PM 35.3058 -114.2061 244° Southwest 482 555 34,000  Level Los Angeles Center
Thu 10:42:11 PM 35.2508 -114.3461 244° Southwest 464 534 34,000  Level Los Angeles Center
Thu 10:43:13 PM 35.1947 -114.4864 244° Southwest 459 528 34,000  Level Los Angeles Center
Thu 10:44:15 PM 35.1378 -114.6286 244° Southwest 463 533 34,000  Level Los Angeles Center
Thu 10:45:17 PM 35.0700 -114.7972 244° Southwest 460 529 34,000  Level Los Angeles Center
Thu 10:46:19 PM 35.0142 -114.9364 244° Southwest 458 527 34,000  Level Los Angeles Center
Thu 10:47:21 PM 34.9589 -115.0750 244° Southwest 455 524 34,000  Level Los Angeles Center
Thu 10:48:23 PM 34.9031 -115.2128 244° Southwest 454 522 34,000  Level Los Angeles Center
Thu 10:49:25 PM 34.8461 -115.3478 243° Southwest 449 517 34,000  Level Los Angeles Center
Thu 10:50:27 PM 34.7897 -115.4875 244° Southwest 454 522 34,000  Level Los Angeles Center
Thu 10:51:29 PM 34.7311 -115.6319 244° Southwest 459 528 34,000 -290 Level Los Angeles Center
Thu 10:52:31 PM 34.6747 -115.7689 243° Southwest 454 522 33,400 -1,113 Descending Los Angeles Center
Thu 10:53:33 PM 34.6519 -115.9144 259° West 442 509 31,700 -1,403 Descending Los Angeles Center
Thu 10:54:35 PM 34.6433 -116.0911 267° West 435 501 30,500 -1,355 Descending Los Angeles Center
Thu 10:55:37 PM 34.6864 -116.2169 293° West 408 470 28,900 -1,984 Descending Los Angeles Center
Thu 10:56:39 PM 34.7378 -116.3319 299° West 394 453 26,400 -2,323 Descending Los Angeles Center
Thu 10:57:41 PM 34.7853 -116.4394 298° West 370 426 24,100 -1,742 Descending Los Angeles Center
Thu 10:58:43 PM 34.7881 -116.5636 272° West 376 433 22,800 -1,016 Descending Los Angeles Center
Thu 10:59:45 PM 34.7747 -116.6875 263° West 369 425 22,000 -387 Descending Los Angeles Center
Thu 11:00:47 PM 34.7597 -116.8492 264° West 399 459 22,000  Level Los Angeles Center
Thu 11:01:49 PM 34.7461 -116.9842 263° West 402 463 22,000  Level Los Angeles Center
Thu 11:02:51 PM 34.7314 -117.1183 262° West 400 460 22,000  Level Los Angeles Center
Thu 11:03:53 PM 34.7183 -117.2528 263° West 398 458 22,000  Level Los Angeles Center
Thu 11:04:54 PM 34.7042 -117.3892 263° West 403 464 22,000  Level Los Angeles Center
Thu 11:05:56 PM 34.6892 -117.5242 262° West 402 463 22,000  Level Los Angeles Center
Thu 11:06:58 PM 34.6747 -117.6617 263° West 408 470 22,000  Level Los Angeles Center
Thu 11:08:00 PM 34.6586 -117.7986 262° West 408 470 22,000  Level Los Angeles Center
Thu 11:09:02 PM 34.6422 -117.9622 263° West 408 470 22,000  Level Los Angeles Center
Thu 11:10:04 PM 34.6283 -118.0978 263° West 405 466 22,000  Level Los Angeles Center
Thu 11:11:06 PM 34.6197 -118.2458 266° West 405 466 22,000 -97 Level Los Angeles Center
Thu 11:12:08 PM 34.6106 -118.3811 265° West 404 465 21,800 -927 Descending Los Angeles Center
Thu 11:13:09 PM 34.5994 -118.5119 264° West 393 452 20,100 -1,561 Descending Los Angeles Center
Thu 11:14:11 PM 34.5647 -118.6381 252° West 398 458 18,600 -1,016 Descending Los Angeles Center
Thu 11:15:13 PM 34.5314 -118.7628 252° West 393 452 18,000 -290 Descending Los Angeles Center
Thu 11:16:15 PM 34.4919 -118.8825 248° West 387 445 18,000 -484 Level Los Angeles Center
Thu 11:17:17 PM 34.3789 -118.9456 205° Southwest 394 453 17,000 -1,548 Descending Los Angeles Center
Thu 11:18:19 PM 34.2856 -118.8892 153° Southeast 376 433 14,800 -2,177 Descending Los Angeles Center
Thu 11:19:21 PM 34.1969 -118.8311 152° Southeast 364 419 12,500 -1,742 Descending Los Angeles Center
Thu 11:20:23 PM 34.1056 -118.7894 159° South 351 404 11,200 -1,210 Descending Los Angeles Center
Thu 11:21:25 PM 34.0392 -118.7217 140° Southeast 300 345 10,000 -629 Descending Los Angeles Center
Thu 11:22:27 PM 34.0361 -118.6367 92° East 253 291 9,900 -581 Descending Los Angeles Center
Thu 11:23:29 PM 34.0225 -118.5497 101° East 245 282 8,800 -1,113 Descending Los Angeles Center
Thu 11:24:31 PM 34.0114 -118.4694 99° East 243 280 7,600 -1,161 Descending Los Angeles Center
Thu 11:25:33 PM 34.0192 -118.3925 83° East 238 274 6,400 -1,113 Descending Los Angeles Center
Thu 11:26:35 PM 34.0269 -118.3147 83° East 234 269 5,300 -780 Descending Los Angeles Center
Thu 11:27:36 PM 34.0244 -118.2494 93° East 222 255 4,800 -492 Descending Los Angeles Center

Login

Don't have an account? Register now (free) for customized features, flight alerts, and more!